sensor_id;sensor_type;location;lat;lon;timestamp;temperature;humidity
6252;DHT22;3159;52.414;9.784;2022-08-19T00:01:16;22.20;99.90
6252;DHT22;3159;52.414;9.784;2022-08-19T00:03:43;22.20;99.90
6252;DHT22;3159;52.414;9.784;2022-08-19T00:06:10;22.10;99.90
6252;DHT22;3159;52.414;9.784;2022-08-19T00:08:37;22.10;99.90
6252;DHT22;3159;52.414;9.784;2022-08-19T00:11:04;22.00;99.90
6252;DHT22;3159;52.414;9.784;2022-08-19T00:13:33;22.00;99.90
6252;DHT22;3159;52.414;9.784;2022-08-19T00:16:02;22.10;99.90
6252;DHT22;3159;52.414;9.784;2022-08-19T00:18:29;21.90;99.90
6252;DHT22;3159;52.414;9.784;2022-08-19T00:20:58;21.80;99.90
6252;DHT22;3159;52.414;9.784;2022-08-19T00:23:25;21.70;99.90
6252;DHT22;3159;52.414;9.784;2022-08-19T00:25:53;21.80;99.90
6252;DHT22;3159;52.414;9.784;2022-08-19T00:28:20;21.70;99.90
6252;DHT22;3159;52.414;9.784;2022-08-19T00:30:47;21.70;99.90
6252;DHT22;3159;52.414;9.784;2022-08-19T00:33:15;21.50;99.90
6252;DHT22;3159;52.414;9.784;2022-08-19T00:35:42;21.40;99.90
6252;DHT22;3159;52.414;9.784;2022-08-19T00:38:09;21.50;99.90
6252;DHT22;3159;52.414;9.784;2022-08-19T00:40:36;21.60;99.90
6252;DHT22;3159;52.414;9.784;2022-08-19T00:43:08;21.50;99.90
6252;DHT22;3159;52.414;9.784;2022-08-19T00:45:36;21.50;99.90
6252;DHT22;3159;52.414;9.784;2022-08-19T00:48:03;21.40;99.90
6252;DHT22;3159;52.414;9.784;2022-08-19T00:50:32;21.30;99.90
6252;DHT22;3159;52.414;9.784;2022-08-19T00:53:00;21.20;99.90
6252;DHT22;3159;52.414;9.784;2022-08-19T00:55:30;21.30;99.90
6252;DHT22;3159;52.414;9.784;2022-08-19T00:58:02;21.30;99.90
6252;DHT22;3159;52.414;9.784;2022-08-19T01:00:31;21.40;99.90
6252;DHT22;3159;52.414;9.784;2022-08-19T01:03:02;21.30;99.90
6252;DHT22;3159;52.414;9.784;2022-08-19T01:05:29;21.30;99.90
6252;DHT22;3159;52.414;9.784;2022-08-19T01:08:00;21.30;99.90
6252;DHT22;3159;52.414;9.784;2022-08-19T01:10:31;21.10;99.90
6252;DHT22;3159;52.414;9.784;2022-08-19T01:12:59;21.10;99.90
6252;DHT22;3159;52.414;9.784;2022-08-19T01:15:32;21.10;99.90
6252;DHT22;3159;52.414;9.784;2022-08-19T01:18:03;21.10;99.90
6252;DHT22;3159;52.414;9.784;2022-08-19T01:20:31;21.00;99.90
6252;DHT22;3159;52.414;9.784;2022-08-19T01:23:02;20.90;99.90
6252;DHT22;3159;52.414;9.784;2022-08-19T01:25:32;21.00;99.90
6252;DHT22;3159;52.414;9.784;2022-08-19T01:28:03;20.90;99.90
6252;DHT22;3159;52.414;9.784;2022-08-19T01:30:34;21.10;99.90
6252;DHT22;3159;52.414;9.784;2022-08-19T01:33:09;21.10;99.90
6252;DHT22;3159;52.414;9.784;2022-08-19T01:35:37;21.00;99.90
6252;DHT22;3159;52.414;9.784;2022-08-19T01:38:09;21.10;99.90
6252;DHT22;3159;52.414;9.784;2022-08-19T01:40:42;21.00;99.90
6252;DHT22;3159;52.414;9.784;2022-08-19T01:43:11;21.10;99.90
6252;DHT22;3159;52.414;9.784;2022-08-19T01:45:39;21.10;99.90
6252;DHT22;3159;52.414;9.784;2022-08-19T01:48:09;21.00;99.90
6252;DHT22;3159;52.414;9.784;2022-08-19T01:50:39;21.00;99.90
6252;DHT22;3159;52.414;9.784;2022-08-19T01:53:11;21.10;99.90
6252;DHT22;3159;52.414;9.784;2022-08-19T01:55:41;20.90;99.90
6252;DHT22;3159;52.414;9.784;2022-08-19T01:58:15;21.00;99.90
6252;DHT22;3159;52.414;9.784;2022-08-19T02:00:48;21.00;99.90
6252;DHT22;3159;52.414;9.784;2022-08-19T02:03:16;21.00;99.90
6252;DHT22;3159;52.414;9.784;2022-08-19T02:05:45;21.10;99.90
6252;DHT22;3159;52.414;9.784;2022-08-19T02:08:14;21.00;99.90
6252;DHT22;3159;52.414;9.784;2022-08-19T02:10:44;21.10;99.90
6252;DHT22;3159;52.414;9.784;2022-08-19T02:13:13;21.10;99.90
6252;DHT22;3159;52.414;9.784;2022-08-19T02:15:42;21.00;99.90
6252;DHT22;3159;52.414;9.784;2022-08-19T02:18:12;21.00;99.90
6252;DHT22;3159;52.414;9.784;2022-08-19T02:20:41;21.00;99.90
6252;DHT22;3159;52.414;9.784;2022-08-19T02:23:15;21.00;99.90
6252;DHT22;3159;52.414;9.784;2022-08-19T02:25:50;21.00;99.90
6252;DHT22;3159;52.414;9.784;2022-08-19T02:28:18;20.90;99.90
6252;DHT22;3159;52.414;9.784;2022-08-19T02:30:47;20.80;99.90
6252;DHT22;3159;52.414;9.784;2022-08-19T02:33:16;20.80;99.90
6252;DHT22;3159;52.414;9.784;2022-08-19T02:35:45;20.80;99.90
6252;DHT22;3159;52.414;9.784;2022-08-19T02:38:16;20.80;99.90
6252;DHT22;3159;52.414;9.784;2022-08-19T02:40:55;20.90;99.90
6252;DHT22;3159;52.414;9.784;2022-08-19T02:43:25;20.80;99.90
6252;DHT22;3159;52.414;9.784;2022-08-19T02:45:56;20.80;99.90
6252;DHT22;3159;52.414;9.784;2022-08-19T02:48:25;20.80;99.90
6252;DHT22;3159;52.414;9.784;2022-08-19T02:50:55;20.80;99.90
6252;DHT22;3159;52.414;9.784;2022-08-19T02:53:27;20.80;99.90
6252;DHT22;3159;52.414;9.784;2022-08-19T02:55:55;20.80;99.90
6252;DHT22;3159;52.414;9.784;2022-08-19T02:58:23;20.80;99.90
6252;DHT22;3159;52.414;9.784;2022-08-19T03:00:54;20.80;99.90
6252;DHT22;3159;52.414;9.784;2022-08-19T03:03:22;20.90;99.90
6252;DHT22;3159;52.414;9.784;2022-08-19T03:06:07;20.90;99.90
6252;DHT22;3159;52.414;9.784;2022-08-19T03:08:43;20.90;99.90
6252;DHT22;3159;52.414;9.784;2022-08-19T03:11:18;20.90;99.90
6252;DHT22;3159;52.414;9.784;2022-08-19T03:13:46;20.90;99.90
6252;DHT22;3159;52.414;9.784;2022-08-19T03:16:18;20.90;99.90
6252;DHT22;3159;52.414;9.784;2022-08-19T03:18:46;20.80;99.90
6252;DHT22;3159;52.414;9.784;2022-08-19T03:21:15;20.90;99.90
6252;DHT22;3159;52.414;9.784;2022-08-19T03:23:44;20.80;99.90
6252;DHT22;3159;52.414;9.784;2022-08-19T03:26:12;20.80;99.90
6252;DHT22;3159;52.414;9.784;2022-08-19T03:28:40;20.90;99.90
6252;DHT22;3159;52.414;9.784;2022-08-19T03:31:19;20.80;99.90
6252;DHT22;3159;52.414;9.784;2022-08-19T03:33:50;20.90;99.90
6252;DHT22;3159;52.414;9.784;2022-08-19T03:36:24;20.90;99.90
6252;DHT22;3159;52.414;9.784;2022-08-19T03:39:00;20.90;99.90
6252;DHT22;3159;52.414;9.784;2022-08-19T03:41:30;20.80;99.90
6252;DHT22;3159;52.414;9.784;2022-08-19T03:43:58;20.90;99.90
6252;DHT22;3159;52.414;9.784;2022-08-19T03:46:32;20.70;99.90
6252;DHT22;3159;52.414;9.784;2022-08-19T03:49:02;20.70;99.90
6252;DHT22;3159;52.414;9.784;2022-08-19T03:51:34;20.70;99.90
6252;DHT22;3159;52.414;9.784;2022-08-19T03:54:06;20.70;99.90
6252;DHT22;3159;52.414;9.784;2022-08-19T03:56:35;20.70;99.90
6252;DHT22;3159;52.414;9.784;2022-08-19T03:59:04;20.70;99.90
6252;DHT22;3159;52.414;9.784;2022-08-19T04:01:32;20.70;99.90
6252;DHT22;3159;52.414;9.784;2022-08-19T04:03:59;20.60;99.90
6252;DHT22;3159;52.414;9.784;2022-08-19T04:06:29;20.70;99.90
6252;DHT22;3159;52.414;9.784;2022-08-19T04:08:59;20.50;99.90
6252;DHT22;3159;52.414;9.784;2022-08-19T04:11:30;20.60;99.90
6252;DHT22;3159;52.414;9.784;2022-08-19T04:13:58;20.60;99.90
6252;DHT22;3159;52.414;9.784;2022-08-19T04:16:27;20.60;99.90
6252;DHT22;3159;52.414;9.784;2022-08-19T04:18:55;20.50;99.90
6252;DHT22;3159;52.414;9.784;2022-08-19T04:21:24;20.50;99.90
6252;DHT22;3159;52.414;9.784;2022-08-19T04:23:53;20.50;99.90
6252;DHT22;3159;52.414;9.784;2022-08-19T04:26:23;20.40;99.90
6252;DHT22;3159;52.414;9.784;2022-08-19T04:28:53;20.40;99.90
6252;DHT22;3159;52.414;9.784;2022-08-19T04:31:24;20.30;99.90
6252;DHT22;3159;52.414;9.784;2022-08-19T04:33:53;20.20;99.90
6252;DHT22;3159;52.414;9.784;2022-08-19T04:36:23;20.20;99.90
6252;DHT22;3159;52.414;9.784;2022-08-19T04:38:54;20.20;99.90
6252;DHT22;3159;52.414;9.784;2022-08-19T04:41:22;20.20;99.90
6252;DHT22;3159;52.414;9.784;2022-08-19T04:44:09;20.20;99.90
6252;DHT22;3159;52.414;9.784;2022-08-19T04:46:39;20.20;99.90
6252;DHT22;3159;52.414;9.784;2022-08-19T04:49:09;20.20;99.90
6252;DHT22;3159;52.414;9.784;2022-08-19T04:51:41;20.20;99.90
6252;DHT22;3159;52.414;9.784;2022-08-19T04:54:09;20.20;99.90
6252;DHT22;3159;52.414;9.784;2022-08-19T04:56:39;20.20;99.90
6252;DHT22;3159;52.414;9.784;2022-08-19T04:59:08;20.20;99.90
6252;DHT22;3159;52.414;9.784;2022-08-19T05:01:36;20.20;99.90
6252;DHT22;3159;52.414;9.784;2022-08-19T05:04:05;20.20;99.90
6252;DHT22;3159;52.414;9.784;2022-08-19T05:06:35;20.20;99.90
6252;DHT22;3159;52.414;9.784;2022-08-19T05:09:04;20.10;99.90
6252;DHT22;3159;52.414;9.784;2022-08-19T05:11:33;20.20;99.90
6252;DHT22;3159;52.414;9.784;2022-08-19T05:14:01;20.20;99.90
6252;DHT22;3159;52.414;9.784;2022-08-19T05:16:30;20.20;99.90
6252;DHT22;3159;52.414;9.784;2022-08-19T05:18:58;20.30;99.90
6252;DHT22;3159;52.414;9.784;2022-08-19T05:21:43;20.30;99.90
6252;DHT22;3159;52.414;9.784;2022-08-19T05:24:28;20.30;99.90
6252;DHT22;3159;52.414;9.784;2022-08-19T05:26:56;20.20;99.90
6252;DHT22;3159;52.414;9.784;2022-08-19T05:29:25;20.40;99.90
6252;DHT22;3159;52.414;9.784;2022-08-19T05:31:55;20.30;99.90
6252;DHT22;3159;52.414;9.784;2022-08-19T05:34:23;20.20;99.90
6252;DHT22;3159;52.414;9.784;2022-08-19T05:36:54;20.20;99.90
6252;DHT22;3159;52.414;9.784;2022-08-19T05:39:24;20.20;99.90
6252;DHT22;3159;52.414;9.784;2022-08-19T05:41:55;20.20;99.90
6252;DHT22;3159;52.414;9.784;2022-08-19T05:44:24;20.20;99.90
6252;DHT22;3159;52.414;9.784;2022-08-19T05:46:55;20.20;99.90
6252;DHT22;3159;52.414;9.784;2022-08-19T05:49:30;20.20;99.90
6252;DHT22;3159;52.414;9.784;2022-08-19T05:52:11;20.20;99.90
6252;DHT22;3159;52.414;9.784;2022-08-19T05:55:03;20.30;99.90
6252;DHT22;3159;52.414;9.784;2022-08-19T05:57:32;20.20;99.90
6252;DHT22;3159;52.414;9.784;2022-08-19T06:00:10;20.20;99.90
6252;DHT22;3159;52.414;9.784;2022-08-19T06:02:43;20.10;99.90
6252;DHT22;3159;52.414;9.784;2022-08-19T06:05:19;20.00;99.90
6252;DHT22;3159;52.414;9.784;2022-08-19T06:07:50;20.20;99.90
6252;DHT22;3159;52.414;9.784;2022-08-19T06:10:20;20.20;99.90
6252;DHT22;3159;52.414;9.784;2022-08-19T06:13:00;20.20;99.90
6252;DHT22;3159;52.414;9.784;2022-08-19T06:15:31;20.00;99.90
6252;DHT22;3159;52.414;9.784;2022-08-19T06:18:05;20.10;99.90
6252;DHT22;3159;52.414;9.784;2022-08-19T06:20:33;20.10;99.90
6252;DHT22;3159;52.414;9.784;2022-08-19T06:23:12;20.20;99.90
6252;DHT22;3159;52.414;9.784;2022-08-19T06:25:49;20.20;99.90
6252;DHT22;3159;52.414;9.784;2022-08-19T06:28:38;20.30;99.90
6252;DHT22;3159;52.414;9.784;2022-08-19T06:31:25;20.30;99.90
6252;DHT22;3159;52.414;9.784;2022-08-19T06:34:24;20.30;99.90
6252;DHT22;3159;52.414;9.784;2022-08-19T06:37:06;20.30;99.90
6252;DHT22;3159;52.414;9.784;2022-08-19T06:40:21;20.20;99.90
6252;DHT22;3159;52.414;9.784;2022-08-19T06:42:57;20.30;99.90
6252;DHT22;3159;52.414;9.784;2022-08-19T06:45:44;20.40;99.90
6252;DHT22;3159;52.414;9.784;2022-08-19T06:54:59;20.20;99.90
6252;DHT22;3159;52.414;9.784;2022-08-19T06:58:15;20.20;99.90
6252;DHT22;3159;52.414;9.784;2022-08-19T07:01:02;20.20;99.90
6252;DHT22;3159;52.414;9.784;2022-08-19T07:03:43;20.10;99.90
6252;DHT22;3159;52.414;9.784;2022-08-19T07:06:28;20.10;99.90
6252;DHT22;3159;52.414;9.784;2022-08-19T07:09:17;20.00;99.90
6252;DHT22;3159;52.414;9.784;2022-08-19T07:11:54;20.20;99.90
6252;DHT22;3159;52.414;9.784;2022-08-19T07:17:29;20.10;99.90
6252;DHT22;3159;52.414;9.784;2022-08-19T07:20:05;20.30;99.90
6252;DHT22;3159;52.414;9.784;2022-08-19T07:22:54;20.20;99.90
6252;DHT22;3159;52.414;9.784;2022-08-19T07:25:53;20.40;99.90
6252;DHT22;3159;52.414;9.784;2022-08-19T07:32:00;20.50;99.90
6252;DHT22;3159;52.414;9.784;2022-08-19T07:34:50;20.80;99.90
6252;DHT22;3159;52.414;9.784;2022-08-19T07:37:21;20.80;99.90
6252;DHT22;3159;52.414;9.784;2022-08-19T07:39:56;20.90;99.90
6252;DHT22;3159;52.414;9.784;2022-08-19T07:42:26;20.70;99.90
6252;DHT22;3159;52.414;9.784;2022-08-19T07:45:02;20.80;99.90
6252;DHT22;3159;52.414;9.784;2022-08-19T07:47:54;21.00;99.90
6252;DHT22;3159;52.414;9.784;2022-08-19T07:50:29;21.10;99.90
6252;DHT22;3159;52.414;9.784;2022-08-19T07:53:23;21.00;99.90
6252;DHT22;3159;52.414;9.784;2022-08-19T07:56:03;21.10;99.90
6252;DHT22;3159;52.414;9.784;2022-08-19T07:58:38;21.00;99.90
6252;DHT22;3159;52.414;9.784;2022-08-19T08:01:14;21.10;99.90
6252;DHT22;3159;52.414;9.784;2022-08-19T08:03:52;21.20;99.90
6252;DHT22;3159;52.414;9.784;2022-08-19T08:06:40;21.10;99.90
6252;DHT22;3159;52.414;9.784;2022-08-19T08:09:31;21.20;99.90
6252;DHT22;3159;52.414;9.784;2022-08-19T08:12:16;21.30;99.90
6252;DHT22;3159;52.414;9.784;2022-08-19T08:15:06;21.40;99.90
6252;DHT22;3159;52.414;9.784;2022-08-19T08:17:38;21.40;99.90
6252;DHT22;3159;52.414;9.784;2022-08-19T08:20:19;21.70;99.90
6252;DHT22;3159;52.414;9.784;2022-08-19T08:22:48;21.50;99.90
6252;DHT22;3159;52.414;9.784;2022-08-19T08:25:35;21.60;99.90
6252;DHT22;3159;52.414;9.784;2022-08-19T08:28:04;21.40;99.90
6252;DHT22;3159;52.414;9.784;2022-08-19T08:30:33;21.60;99.90
6252;DHT22;3159;52.414;9.784;2022-08-19T08:33:02;21.60;99.90
6252;DHT22;3159;52.414;9.784;2022-08-19T08:35:32;21.70;99.90
6252;DHT22;3159;52.414;9.784;2022-08-19T08:38:07;22.10;99.90
6252;DHT22;3159;52.414;9.784;2022-08-19T08:40:43;22.50;99.90
6252;DHT22;3159;52.414;9.784;2022-08-19T08:43:21;23.20;99.90
6252;DHT22;3159;52.414;9.784;2022-08-19T08:45:55;23.30;99.90
6252;DHT22;3159;52.414;9.784;2022-08-19T08:48:26;23.30;99.90
6252;DHT22;3159;52.414;9.784;2022-08-19T08:50:56;23.30;99.90
6252;DHT22;3159;52.414;9.784;2022-08-19T08:53:25;23.20;99.90
6252;DHT22;3159;52.414;9.784;2022-08-19T08:55:52;22.90;99.90
6252;DHT22;3159;52.414;9.784;2022-08-19T08:58:25;22.80;99.90
6252;DHT22;3159;52.414;9.784;2022-08-19T09:00:54;22.90;99.90
6252;DHT22;3159;52.414;9.784;2022-08-19T09:03:26;23.20;99.90
6252;DHT22;3159;52.414;9.784;2022-08-19T09:06:03;23.60;99.90
6252;DHT22;3159;52.414;9.784;2022-08-19T09:08:40;23.90;99.90
6252;DHT22;3159;52.414;9.784;2022-08-19T09:11:12;23.80;99.90
6252;DHT22;3159;52.414;9.784;2022-08-19T09:13:48;23.60;99.90
6252;DHT22;3159;52.414;9.784;2022-08-19T09:16:18;23.50;99.90
6252;DHT22;3159;52.414;9.784;2022-08-19T09:18:50;23.30;99.90
6252;DHT22;3159;52.414;9.784;2022-08-19T09:21:19;23.40;99.90
6252;DHT22;3159;52.414;9.784;2022-08-19T09:23:48;23.60;99.90
6252;DHT22;3159;52.414;9.784;2022-08-19T09:26:18;23.60;99.90
6252;DHT22;3159;52.414;9.784;2022-08-19T09:28:47;23.20;99.90
6252;DHT22;3159;52.414;9.784;2022-08-19T09:31:18;23.30;99.90
6252;DHT22;3159;52.414;9.784;2022-08-19T09:33:46;23.10;99.90
6252;DHT22;3159;52.414;9.784;2022-08-19T09:36:14;22.90;99.90
6252;DHT22;3159;52.414;9.784;2022-08-19T09:38:43;23.40;99.90
6252;DHT22;3159;52.414;9.784;2022-08-19T09:41:16;23.40;99.90
6252;DHT22;3159;52.414;9.784;2022-08-19T09:43:45;23.50;99.90
6252;DHT22;3159;52.414;9.784;2022-08-19T09:46:12;23.80;99.90
6252;DHT22;3159;52.414;9.784;2022-08-19T09:48:41;24.10;99.90
6252;DHT22;3159;52.414;9.784;2022-08-19T09:51:11;24.80;99.90
6252;DHT22;3159;52.414;9.784;2022-08-19T09:53:43;24.50;99.90
6252;DHT22;3159;52.414;9.784;2022-08-19T09:56:13;25.10;99.90
6252;DHT22;3159;52.414;9.784;2022-08-19T09:58:40;25.20;99.90
6252;DHT22;3159;52.414;9.784;2022-08-19T10:01:08;25.20;99.90
6252;DHT22;3159;52.414;9.784;2022-08-19T10:03:36;25.80;99.90
6252;DHT22;3159;52.414;9.784;2022-08-19T10:06:05;26.30;99.90
6252;DHT22;3159;52.414;9.784;2022-08-19T10:08:34;25.70;99.90
6252;DHT22;3159;52.414;9.784;2022-08-19T10:11:03;25.90;99.90
6252;DHT22;3159;52.414;9.784;2022-08-19T10:13:32;26.00;99.90
6252;DHT22;3159;52.414;9.784;2022-08-19T10:16:04;26.60;99.90
6252;DHT22;3159;52.414;9.784;2022-08-19T10:18:32;26.80;99.90
6252;DHT22;3159;52.414;9.784;2022-08-19T10:21:04;26.70;99.90
6252;DHT22;3159;52.414;9.784;2022-08-19T10:23:34;26.40;99.90
6252;DHT22;3159;52.414;9.784;2022-08-19T10:26:04;26.20;99.90
6252;DHT22;3159;52.414;9.784;2022-08-19T10:28:33;25.90;99.90
6252;DHT22;3159;52.414;9.784;2022-08-19T10:31:04;26.10;99.90
6252;DHT22;3159;52.414;9.784;2022-08-19T10:33:32;25.80;99.90
6252;DHT22;3159;52.414;9.784;2022-08-19T10:36:00;25.90;99.90
6252;DHT22;3159;52.414;9.784;2022-08-19T10:38:27;25.40;99.90
6252;DHT22;3159;52.414;9.784;2022-08-19T10:40:55;25.60;99.90
6252;DHT22;3159;52.414;9.784;2022-08-19T10:43:23;26.10;99.90
6252;DHT22;3159;52.414;9.784;2022-08-19T10:45:54;26.10;99.90
6252;DHT22;3159;52.414;9.784;2022-08-19T10:48:24;26.40;99.90
6252;DHT22;3159;52.414;9.784;2022-08-19T10:50:51;26.70;99.90
6252;DHT22;3159;52.414;9.784;2022-08-19T10:53:36;26.20;99.90
6252;DHT22;3159;52.414;9.784;2022-08-19T10:56:03;26.70;99.90
6252;DHT22;3159;52.414;9.784;2022-08-19T10:58:49;26.60;99.90
6252;DHT22;3159;52.414;9.784;2022-08-19T11:01:16;26.60;99.90
6252;DHT22;3159;52.414;9.784;2022-08-19T11:03:42;26.50;99.90
6252;DHT22;3159;52.414;9.784;2022-08-19T11:06:11;26.50;99.90
6252;DHT22;3159;52.414;9.784;2022-08-19T11:08:38;26.60;99.90
6252;DHT22;3159;52.414;9.784;2022-08-19T11:11:06;26.30;99.90
6252;DHT22;3159;52.414;9.784;2022-08-19T11:13:35;26.30;99.90
6252;DHT22;3159;52.414;9.784;2022-08-19T11:16:07;26.20;99.90
6252;DHT22;3159;52.414;9.784;2022-08-19T11:18:39;27.00;99.90
6252;DHT22;3159;52.414;9.784;2022-08-19T11:21:09;27.80;99.90
6252;DHT22;3159;52.414;9.784;2022-08-19T11:23:39;28.20;99.90
6252;DHT22;3159;52.414;9.784;2022-08-19T11:26:16;28.80;99.90
6252;DHT22;3159;52.414;9.784;2022-08-19T11:28:43;28.90;99.90
6252;DHT22;3159;52.414;9.784;2022-08-19T11:31:13;29.40;99.90
6252;DHT22;3159;52.414;9.784;2022-08-19T11:33:40;29.30;99.90
6252;DHT22;3159;52.414;9.784;2022-08-19T11:36:08;29.30;99.90
6252;DHT22;3159;52.414;9.784;2022-08-19T11:38:35;29.50;99.90
6252;DHT22;3159;52.414;9.784;2022-08-19T11:41:05;29.40;99.90
6252;DHT22;3159;52.414;9.784;2022-08-19T11:43:33;29.40;99.90
6252;DHT22;3159;52.414;9.784;2022-08-19T11:46:03;29.50;99.90
6252;DHT22;3159;52.414;9.784;2022-08-19T11:48:34;30.10;99.90
6252;DHT22;3159;52.414;9.784;2022-08-19T11:51:04;29.80;99.90
6252;DHT22;3159;52.414;9.784;2022-08-19T11:53:33;29.50;99.90
6252;DHT22;3159;52.414;9.784;2022-08-19T11:56:00;29.20;99.90
6252;DHT22;3159;52.414;9.784;2022-08-19T11:58:27;28.70;99.90
6252;DHT22;3159;52.414;9.784;2022-08-19T12:00:54;29.30;99.90
6252;DHT22;3159;52.414;9.784;2022-08-19T12:03:22;29.20;99.90
6252;DHT22;3159;52.414;9.784;2022-08-19T12:05:50;29.40;99.90
6252;DHT22;3159;52.414;9.784;2022-08-19T12:08:18;29.50;99.90
6252;DHT22;3159;52.414;9.784;2022-08-19T12:10:45;30.20;99.90
6252;DHT22;3159;52.414;9.784;2022-08-19T12:13:13;29.70;99.90
6252;DHT22;3159;52.414;9.784;2022-08-19T12:15:46;29.60;99.90
6252;DHT22;3159;52.414;9.784;2022-08-19T12:18:13;29.80;99.90
6252;DHT22;3159;52.414;9.784;2022-08-19T12:20:42;30.00;99.90
6252;DHT22;3159;52.414;9.784;2022-08-19T12:23:10;30.20;99.90
6252;DHT22;3159;52.414;9.784;2022-08-19T12:25:42;30.30;99.90
6252;DHT22;3159;52.414;9.784;2022-08-19T12:28:18;30.40;99.90
6252;DHT22;3159;52.414;9.784;2022-08-19T12:30:45;30.30;99.90
6252;DHT22;3159;52.414;9.784;2022-08-19T12:33:12;30.80;99.90
6252;DHT22;3159;52.414;9.784;2022-08-19T12:35:40;30.60;99.90
6252;DHT22;3159;52.414;9.784;2022-08-19T12:38:08;30.30;99.90
6252;DHT22;3159;52.414;9.784;2022-08-19T12:40:36;30.00;99.90
6252;DHT22;3159;52.414;9.784;2022-08-19T12:43:04;30.30;99.90
6252;DHT22;3159;52.414;9.784;2022-08-19T12:45:31;30.70;99.90
6252;DHT22;3159;52.414;9.784;2022-08-19T12:47:58;30.60;99.90
6252;DHT22;3159;52.414;9.784;2022-08-19T12:50:25;30.90;99.90
6252;DHT22;3159;52.414;9.784;2022-08-19T12:52:52;31.00;99.90
6252;DHT22;3159;52.414;9.784;2022-08-19T12:55:19;31.30;99.90
6252;DHT22;3159;52.414;9.784;2022-08-19T12:57:47;31.00;99.90
6252;DHT22;3159;52.414;9.784;2022-08-19T13:00:17;30.90;99.90
6252;DHT22;3159;52.414;9.784;2022-08-19T13:02:48;31.10;99.90
6252;DHT22;3159;52.414;9.784;2022-08-19T13:05:19;30.90;99.90
6252;DHT22;3159;52.414;9.784;2022-08-19T13:07:49;30.80;99.90
6252;DHT22;3159;52.414;9.784;2022-08-19T13:10:18;30.80;99.90
6252;DHT22;3159;52.414;9.784;2022-08-19T13:12:49;31.50;99.90
6252;DHT22;3159;52.414;9.784;2022-08-19T13:15:19;31.50;99.90
6252;DHT22;3159;52.414;9.784;2022-08-19T13:17:47;30.70;99.90
6252;DHT22;3159;52.414;9.784;2022-08-19T13:20:15;30.90;99.90
6252;DHT22;3159;52.414;9.784;2022-08-19T13:22:43;30.60;99.90
6252;DHT22;3159;52.414;9.784;2022-08-19T13:25:11;30.40;99.90
6252;DHT22;3159;52.414;9.784;2022-08-19T13:27:40;30.90;99.90
6252;DHT22;3159;52.414;9.784;2022-08-19T13:30:11;30.90;99.90
6252;DHT22;3159;52.414;9.784;2022-08-19T13:32:55;30.90;99.90
6252;DHT22;3159;52.414;9.784;2022-08-19T13:35:40;30.50;99.90
6252;DHT22;3159;52.414;9.784;2022-08-19T13:38:08;30.60;99.90
6252;DHT22;3159;52.414;9.784;2022-08-19T13:40:36;30.40;99.90
6252;DHT22;3159;52.414;9.784;2022-08-19T13:43:04;30.60;99.90
6252;DHT22;3159;52.414;9.784;2022-08-19T13:45:33;30.50;99.90
6252;DHT22;3159;52.414;9.784;2022-08-19T13:48:02;30.40;99.90
6252;DHT22;3159;52.414;9.784;2022-08-19T13:50:32;30.50;99.90
6252;DHT22;3159;52.414;9.784;2022-08-19T13:53:00;30.40;99.90
6252;DHT22;3159;52.414;9.784;2022-08-19T13:55:27;30.30;99.90
6252;DHT22;3159;52.414;9.784;2022-08-19T13:57:57;30.70;99.90
6252;DHT22;3159;52.414;9.784;2022-08-19T14:00:26;30.70;99.90
6252;DHT22;3159;52.414;9.784;2022-08-19T14:02:56;30.60;99.90
6252;DHT22;3159;52.414;9.784;2022-08-19T14:05:25;30.70;99.90
6252;DHT22;3159;52.414;9.784;2022-08-19T14:07:53;30.20;99.90
6252;DHT22;3159;52.414;9.784;2022-08-19T14:10:21;30.30;99.90
6252;DHT22;3159;52.414;9.784;2022-08-19T14:12:48;30.40;99.90
6252;DHT22;3159;52.414;9.784;2022-08-19T14:15:16;30.30;99.90
6252;DHT22;3159;52.414;9.784;2022-08-19T14:17:44;30.30;99.90
6252;DHT22;3159;52.414;9.784;2022-08-19T14:20:13;30.20;99.90
6252;DHT22;3159;52.414;9.784;2022-08-19T14:22:42;30.30;99.90
6252;DHT22;3159;52.414;9.784;2022-08-19T14:25:12;30.40;99.90
6252;DHT22;3159;52.414;9.784;2022-08-19T14:27:40;30.20;99.90
6252;DHT22;3159;52.414;9.784;2022-08-19T14:30:10;30.20;99.90
6252;DHT22;3159;52.414;9.784;2022-08-19T14:32:37;30.40;99.90
6252;DHT22;3159;52.414;9.784;2022-08-19T14:35:06;30.20;99.90
6252;DHT22;3159;52.414;9.784;2022-08-19T14:37:35;29.90;99.90
6252;DHT22;3159;52.414;9.784;2022-08-19T14:40:03;29.70;99.90
6252;DHT22;3159;52.414;9.784;2022-08-19T14:42:30;29.90;99.90
6252;DHT22;3159;52.414;9.784;2022-08-19T14:44:58;30.20;99.90
6252;DHT22;3159;52.414;9.784;2022-08-19T14:47:25;29.90;99.90
6252;DHT22;3159;52.414;9.784;2022-08-19T14:49:52;29.90;99.90
6252;DHT22;3159;52.414;9.784;2022-08-19T14:52:19;30.10;99.90
6252;DHT22;3159;52.414;9.784;2022-08-19T14:54:48;30.00;99.90
6252;DHT22;3159;52.414;9.784;2022-08-19T14:57:15;29.90;99.90
6252;DHT22;3159;52.414;9.784;2022-08-19T14:59:42;30.00;99.90
6252;DHT22;3159;52.414;9.784;2022-08-19T15:02:09;29.80;99.90
6252;DHT22;3159;52.414;9.784;2022-08-19T15:04:37;29.80;99.90
6252;DHT22;3159;52.414;9.784;2022-08-19T15:07:04;29.70;99.90
6252;DHT22;3159;52.414;9.784;2022-08-19T15:09:32;29.60;99.90
6252;DHT22;3159;52.414;9.784;2022-08-19T15:12:01;29.40;99.90
6252;DHT22;3159;52.414;9.784;2022-08-19T15:14:30;29.40;99.90
6252;DHT22;3159;52.414;9.784;2022-08-19T15:17:01;29.40;99.90
6252;DHT22;3159;52.414;9.784;2022-08-19T15:19:28;29.40;99.90
6252;DHT22;3159;52.414;9.784;2022-08-19T15:21:55;29.40;99.90
6252;DHT22;3159;52.414;9.784;2022-08-19T15:24:22;29.30;99.90
6252;DHT22;3159;52.414;9.784;2022-08-19T15:26:51;29.30;99.90
6252;DHT22;3159;52.414;9.784;2022-08-19T15:29:19;29.20;99.90
6252;DHT22;3159;52.414;9.784;2022-08-19T15:31:49;29.40;99.90
6252;DHT22;3159;52.414;9.784;2022-08-19T15:34:16;29.20;99.90
6252;DHT22;3159;52.414;9.784;2022-08-19T15:36:43;29.40;99.90
6252;DHT22;3159;52.414;9.784;2022-08-19T15:39:10;29.30;99.90
6252;DHT22;3159;52.414;9.784;2022-08-19T15:41:37;29.30;99.90
6252;DHT22;3159;52.414;9.784;2022-08-19T15:44:09;29.30;99.90
6252;DHT22;3159;52.414;9.784;2022-08-19T15:46:42;29.40;99.90
6252;DHT22;3159;52.414;9.784;2022-08-19T15:49:11;29.50;99.90
6252;DHT22;3159;52.414;9.784;2022-08-19T15:51:39;29.50;99.90
6252;DHT22;3159;52.414;9.784;2022-08-19T15:54:09;29.20;99.90
6252;DHT22;3159;52.414;9.784;2022-08-19T15:56:36;29.30;99.90
6252;DHT22;3159;52.414;9.784;2022-08-19T15:59:26;29.40;99.90
6252;DHT22;3159;52.414;9.784;2022-08-19T16:02:12;29.10;99.90
6252;DHT22;3159;52.414;9.784;2022-08-19T16:04:57;29.00;99.90
6252;DHT22;3159;52.414;9.784;2022-08-19T16:07:41;29.20;99.90
6252;DHT22;3159;52.414;9.784;2022-08-19T16:10:08;29.30;99.90
6252;DHT22;3159;52.414;9.784;2022-08-19T16:12:36;29.00;99.90
6252;DHT22;3159;52.414;9.784;2022-08-19T16:15:04;29.00;99.90
6252;DHT22;3159;52.414;9.784;2022-08-19T16:17:33;29.00;99.90
6252;DHT22;3159;52.414;9.784;2022-08-19T16:20:00;28.80;99.90
6252;DHT22;3159;52.414;9.784;2022-08-19T16:22:28;28.90;99.90
6252;DHT22;3159;52.414;9.784;2022-08-19T16:24:56;28.60;99.90
6252;DHT22;3159;52.414;9.784;2022-08-19T16:27:23;28.70;99.90
6252;DHT22;3159;52.414;9.784;2022-08-19T16:29:50;28.80;99.90
6252;DHT22;3159;52.414;9.784;2022-08-19T16:32:17;28.80;99.90
6252;DHT22;3159;52.414;9.784;2022-08-19T16:34:46;28.90;99.90
6252;DHT22;3159;52.414;9.784;2022-08-19T16:37:14;28.90;99.90
6252;DHT22;3159;52.414;9.784;2022-08-19T16:39:41;28.70;99.90
6252;DHT22;3159;52.414;9.784;2022-08-19T16:42:08;28.60;99.90